<?xml version="1.0" encoding="UTF-8" standalone="no" ?>
<gpx xmlns="http://www.topografix.com/GPX/1/1" xmlns:xsi="http://www.w3.org/2001/XMLSchema-instance" xsi:schemaLocation="http://www.topografix.com/GPX/1/1 http://www.topografix.com/GPX/1/1/gpx.xsd" version="1.1" creator="VisuGPX - https://www.visugpx.com">
  <metadata>
    <name>46OT-007-0080-CAHORS-LES-JARDINS-SECRETS</name>
    <desc><![CDATA[46OT-007-0080-CAHORS-LES-JARDINS-SECRETS
Circuit Pédestre dans la Ville]]></desc>
  </metadata>
  <trk>
    <name><![CDATA[Cahors, circuit des Jardins Secrets - Wikiloc]]></name>
    <extensions>
      <line xmlns="http://www.topografix.com/GPX/gpx_style/0/2">
        <color>0000FF</color>
        <width>4</width>
      </line>
    </extensions>
    <trkseg>
      <trkpt lat="44.4456" lon="1.42962">
        <ele>122.437</ele>
        <time>2022-04-12T10:55:11Z</time>
      </trkpt>
      <trkpt lat="44.44573" lon="1.42948">
        <ele>122.949</ele>
        <time>2022-04-12T10:55:13Z</time>
      </trkpt>
      <trkpt lat="44.44571" lon="1.43017">
        <ele>112.413</ele>
        <time>2022-04-12T10:56:15Z</time>
      </trkpt>
      <trkpt lat="44.44546" lon="1.43037">
        <ele>111.408</ele>
        <time>2022-04-12T10:56:35Z</time>
      </trkpt>
      <trkpt lat="44.44517" lon="1.43045">
        <ele>111.442</ele>
        <time>2022-04-12T10:59:42Z</time>
      </trkpt>
      <trkpt lat="44.44532" lon="1.43047">
        <ele>111.422</ele>
        <time>2022-04-12T11:00:01Z</time>
      </trkpt>
      <trkpt lat="44.44528" lon="1.4305">
        <ele>110.44</ele>
        <time>2022-04-12T11:00:19Z</time>
      </trkpt>
      <trkpt lat="44.44492" lon="1.43056">
        <ele>113.428</ele>
        <time>2022-04-12T11:00:47Z</time>
      </trkpt>
      <trkpt lat="44.44485" lon="1.43068">
        <ele>114.472</ele>
        <time>2022-04-12T11:01:39Z</time>
      </trkpt>
      <trkpt lat="44.44532" lon="1.43274">
        <ele>114.427</ele>
        <time>2022-04-12T11:05:29Z</time>
      </trkpt>
      <trkpt lat="44.44534" lon="1.43317">
        <ele>112.454</ele>
        <time>2022-04-12T11:06:01Z</time>
      </trkpt>
      <trkpt lat="44.44521" lon="1.43296">
        <ele>109.499</ele>
        <time>2022-04-12T11:06:56Z</time>
      </trkpt>
      <trkpt lat="44.44539" lon="1.43354">
        <ele>111.466</ele>
        <time>2022-04-12T11:11:20Z</time>
      </trkpt>
      <trkpt lat="44.44538" lon="1.43376">
        <ele>107.929</ele>
        <time>2022-04-12T11:11:54Z</time>
      </trkpt>
      <trkpt lat="44.44531" lon="1.43378">
        <ele>106.421</ele>
        <time>2022-04-12T11:11:56Z</time>
      </trkpt>
      <trkpt lat="44.4454" lon="1.43384">
        <ele>106.408</ele>
        <time>2022-04-12T11:12:18Z</time>
      </trkpt>
      <trkpt lat="44.4455" lon="1.43491">
        <ele>111.485</ele>
        <time>2022-04-12T11:13:22Z</time>
      </trkpt>
      <trkpt lat="44.44557" lon="1.43501">
        <ele>111.495</ele>
        <time>2022-04-12T11:13:37Z</time>
      </trkpt>
      <trkpt lat="44.44564" lon="1.43717">
        <ele>107.463</ele>
        <time>2022-04-12T11:15:44Z</time>
      </trkpt>
      <trkpt lat="44.44579" lon="1.43754">
        <ele>107.951</ele>
        <time>2022-04-12T11:16:05Z</time>
      </trkpt>
      <trkpt lat="44.44581" lon="1.43813">
        <ele>110.455</ele>
        <time>2022-04-12T11:16:37Z</time>
      </trkpt>
      <trkpt lat="44.44599" lon="1.43865">
        <ele>105.45</ele>
        <time>2022-04-12T11:17:09Z</time>
      </trkpt>
      <trkpt lat="44.44613" lon="1.43975">
        <ele>102.497</ele>
        <time>2022-04-12T11:18:30Z</time>
      </trkpt>
      <trkpt lat="44.44652" lon="1.44079">
        <ele>115.412</ele>
        <time>2022-04-12T11:21:21Z</time>
      </trkpt>
      <trkpt lat="44.4465" lon="1.44106">
        <ele>115.433</ele>
        <time>2022-04-12T11:21:39Z</time>
      </trkpt>
      <trkpt lat="44.446" lon="1.44143">
        <ele>116.423</ele>
        <time>2022-04-12T11:22:21Z</time>
      </trkpt>
      <trkpt lat="44.44555" lon="1.44154">
        <ele>116.415</ele>
        <time>2022-04-12T11:23:00Z</time>
      </trkpt>
      <trkpt lat="44.44547" lon="1.44136">
        <ele>115.408</ele>
        <time>2022-04-12T11:23:11Z</time>
      </trkpt>
      <trkpt lat="44.44538" lon="1.44132">
        <ele>116.442</ele>
        <time>2022-04-12T11:23:25Z</time>
      </trkpt>
      <trkpt lat="44.44542" lon="1.44141">
        <ele>116.452</ele>
        <time>2022-04-12T11:25:12Z</time>
      </trkpt>
      <trkpt lat="44.44522" lon="1.44151">
        <ele>116.43</ele>
        <time>2022-04-12T11:25:28Z</time>
      </trkpt>
      <trkpt lat="44.44542" lon="1.44134">
        <ele>117.448</ele>
        <time>2022-04-12T11:25:56Z</time>
      </trkpt>
      <trkpt lat="44.44566" lon="1.44159">
        <ele>118.412</ele>
        <time>2022-04-12T11:26:53Z</time>
      </trkpt>
      <trkpt lat="44.4457" lon="1.44227">
        <ele>100.427</ele>
        <time>2022-04-12T11:27:45Z</time>
      </trkpt>
      <trkpt lat="44.44587" lon="1.44285">
        <ele>105.434</ele>
        <time>2022-04-12T11:28:22Z</time>
      </trkpt>
      <trkpt lat="44.44583" lon="1.44309">
        <ele>106.449</ele>
        <time>2022-04-12T11:28:48Z</time>
      </trkpt>
      <trkpt lat="44.44608" lon="1.44397">
        <ele>98.976</ele>
        <time>2022-04-12T11:29:51Z</time>
      </trkpt>
      <trkpt lat="44.44615" lon="1.44455">
        <ele>102.49</ele>
        <time>2022-04-12T11:30:39Z</time>
      </trkpt>
      <trkpt lat="44.44576" lon="1.44488">
        <ele>108.419</ele>
        <time>2022-04-12T11:32:20Z</time>
      </trkpt>
      <trkpt lat="44.44593" lon="1.44521">
        <ele>104.408</ele>
        <time>2022-04-12T11:33:00Z</time>
      </trkpt>
      <trkpt lat="44.4459" lon="1.44546">
        <ele>107.446</ele>
        <time>2022-04-12T11:35:02Z</time>
      </trkpt>
      <trkpt lat="44.44696" lon="1.44472">
        <ele>112.476</ele>
        <time>2022-04-12T11:38:48Z</time>
      </trkpt>
      <trkpt lat="44.44686" lon="1.44407">
        <ele>100.434</ele>
        <time>2022-04-12T11:41:54Z</time>
      </trkpt>
      <trkpt lat="44.44691" lon="1.44396">
        <ele>98.472</ele>
        <time>2022-04-12T11:42:21Z</time>
      </trkpt>
      <trkpt lat="44.4469" lon="1.44403">
        <ele>99.496</ele>
        <time>2022-04-12T11:42:40Z</time>
      </trkpt>
      <trkpt lat="44.44701" lon="1.44394">
        <ele>106.461</ele>
        <time>2022-04-12T11:44:01Z</time>
      </trkpt>
      <trkpt lat="44.44683" lon="1.44359">
        <ele>108.498</ele>
        <time>2022-04-12T11:44:34Z</time>
      </trkpt>
      <trkpt lat="44.44664" lon="1.44347">
        <ele>105.463</ele>
        <time>2022-04-12T11:45:13Z</time>
      </trkpt>
      <trkpt lat="44.4465" lon="1.4437">
        <ele>104.498</ele>
        <time>2022-04-12T11:45:30Z</time>
      </trkpt>
      <trkpt lat="44.44646" lon="1.44367">
        <ele>104.415</ele>
        <time>2022-04-12T11:45:42Z</time>
      </trkpt>
      <trkpt lat="44.44649" lon="1.44378">
        <ele>93.426</ele>
        <time>2022-04-12T11:46:33Z</time>
      </trkpt>
      <trkpt lat="44.44646" lon="1.44371">
        <ele>93.408</ele>
        <time>2022-04-12T11:46:51Z</time>
      </trkpt>
      <trkpt lat="44.44665" lon="1.44361">
        <ele>95.468</ele>
        <time>2022-04-12T11:47:14Z</time>
      </trkpt>
      <trkpt lat="44.44694" lon="1.44382">
        <ele>100.918</ele>
        <time>2022-04-12T11:48:05Z</time>
      </trkpt>
      <trkpt lat="44.44712" lon="1.44355">
        <ele>118.476</ele>
        <time>2022-04-12T11:50:30Z</time>
      </trkpt>
      <trkpt lat="44.44699" lon="1.44372">
        <ele>118.434</ele>
        <time>2022-04-12T11:52:38Z</time>
      </trkpt>
      <trkpt lat="44.44713" lon="1.44382">
        <ele>121.428</ele>
        <time>2022-04-12T11:53:13Z</time>
      </trkpt>
      <trkpt lat="44.44756" lon="1.44371">
        <ele>118.923</ele>
        <time>2022-04-12T11:54:46Z</time>
      </trkpt>
      <trkpt lat="44.44768" lon="1.4438">
        <ele>114.42</ele>
        <time>2022-04-12T11:56:46Z</time>
      </trkpt>
      <trkpt lat="44.44766" lon="1.44387">
        <ele>117.455</ele>
        <time>2022-04-12T11:57:17Z</time>
      </trkpt>
      <trkpt lat="44.44753" lon="1.44353">
        <ele>114.492</ele>
        <time>2022-04-12T11:57:51Z</time>
      </trkpt>
      <trkpt lat="44.44748" lon="1.44312">
        <ele>111.473</ele>
        <time>2022-04-12T11:58:23Z</time>
      </trkpt>
      <trkpt lat="44.44756" lon="1.44288">
        <ele>111.42</ele>
        <time>2022-04-12T11:58:43Z</time>
      </trkpt>
      <trkpt lat="44.4474" lon="1.44238">
        <ele>107.408</ele>
        <time>2022-04-12T12:00:49Z</time>
      </trkpt>
      <trkpt lat="44.44718" lon="1.44253">
        <ele>121.448</ele>
        <time>2022-04-12T12:01:52Z</time>
      </trkpt>
      <trkpt lat="44.44713" lon="1.44272">
        <ele>121.428</ele>
        <time>2022-04-12T12:02:07Z</time>
      </trkpt>
      <trkpt lat="44.44705" lon="1.44267">
        <ele>126.496</ele>
        <time>2022-04-12T12:02:45Z</time>
      </trkpt>
      <trkpt lat="44.44709" lon="1.44264">
        <ele>127.464</ele>
        <time>2022-04-12T12:02:52Z</time>
      </trkpt>
      <trkpt lat="44.44703" lon="1.44303">
        <ele>128.428</ele>
        <time>2022-04-12T12:08:13Z</time>
      </trkpt>
      <trkpt lat="44.44691" lon="1.44313">
        <ele>143.423</ele>
        <time>2022-04-12T12:08:24Z</time>
      </trkpt>
      <trkpt lat="44.44694" lon="1.44318">
        <ele>138.46</ele>
        <time>2022-04-12T12:08:28Z</time>
      </trkpt>
      <trkpt lat="44.44708" lon="1.44311">
        <ele>123.455</ele>
        <time>2022-04-12T12:08:43Z</time>
      </trkpt>
      <trkpt lat="44.44698" lon="1.44311">
        <ele>132.961</ele>
        <time>2022-04-12T12:09:13Z</time>
      </trkpt>
      <trkpt lat="44.44683" lon="1.44333">
        <ele>136.421</ele>
        <time>2022-04-12T12:09:27Z</time>
      </trkpt>
      <trkpt lat="44.44698" lon="1.44327">
        <ele>135.413</ele>
        <time>2022-04-12T12:09:42Z</time>
      </trkpt>
      <trkpt lat="44.447" lon="1.44308">
        <ele>132.408</ele>
        <time>2022-04-12T12:09:55Z</time>
      </trkpt>
      <trkpt lat="44.44709" lon="1.44314">
        <ele>138.425</ele>
        <time>2022-04-12T12:10:16Z</time>
      </trkpt>
      <trkpt lat="44.44717" lon="1.44303">
        <ele>138.435</ele>
        <time>2022-04-12T12:10:31Z</time>
      </trkpt>
      <trkpt lat="44.44718" lon="1.44297">
        <ele>138.433</ele>
        <time>2022-04-12T12:10:34Z</time>
      </trkpt>
      <trkpt lat="44.44705" lon="1.44292">
        <ele>133.981</ele>
        <time>2022-04-12T12:10:58Z</time>
      </trkpt>
      <trkpt lat="44.44706" lon="1.44262">
        <ele>129.415</ele>
        <time>2022-04-12T12:11:13Z</time>
      </trkpt>
      <trkpt lat="44.4471" lon="1.44279">
        <ele>125.43</ele>
        <time>2022-04-12T12:11:32Z</time>
      </trkpt>
      <trkpt lat="44.44708" lon="1.44272">
        <ele>124.437</ele>
        <time>2022-04-12T12:11:40Z</time>
      </trkpt>
      <trkpt lat="44.44704" lon="1.44296">
        <ele>121.492</ele>
        <time>2022-04-12T12:11:48Z</time>
      </trkpt>
      <trkpt lat="44.44712" lon="1.44309">
        <ele>121.477</ele>
        <time>2022-04-12T12:11:54Z</time>
      </trkpt>
      <trkpt lat="44.44744" lon="1.44328">
        <ele>122.461</ele>
        <time>2022-04-12T12:12:07Z</time>
      </trkpt>
      <trkpt lat="44.44755" lon="1.44321">
        <ele>122.427</ele>
        <time>2022-04-12T12:12:11Z</time>
      </trkpt>
      <trkpt lat="44.44751" lon="1.44307">
        <ele>122.408</ele>
        <time>2022-04-12T12:12:15Z</time>
      </trkpt>
      <trkpt lat="44.44757" lon="1.44311">
        <ele>122.496</ele>
        <time>2022-04-12T12:12:17Z</time>
      </trkpt>
      <trkpt lat="44.44706" lon="1.44261">
        <ele>137.456</ele>
        <time>2022-04-12T12:14:13Z</time>
      </trkpt>
      <trkpt lat="44.44727" lon="1.44242">
        <ele>132.494</ele>
        <time>2022-04-12T12:15:43Z</time>
      </trkpt>
      <trkpt lat="44.44742" lon="1.44245">
        <ele>124.442</ele>
        <time>2022-04-12T12:15:57Z</time>
      </trkpt>
      <trkpt lat="44.44753" lon="1.44279">
        <ele>118.996</ele>
        <time>2022-04-12T12:16:18Z</time>
      </trkpt>
      <trkpt lat="44.44777" lon="1.44281">
        <ele>114.441</ele>
        <time>2022-04-12T12:16:49Z</time>
      </trkpt>
      <trkpt lat="44.44796" lon="1.44261">
        <ele>114.478</ele>
        <time>2022-04-12T12:17:25Z</time>
      </trkpt>
      <trkpt lat="44.44806" lon="1.44266">
        <ele>114.473</ele>
        <time>2022-04-12T12:17:38Z</time>
      </trkpt>
      <trkpt lat="44.44821" lon="1.44326">
        <ele>118.413</ele>
        <time>2022-04-12T12:45:58Z</time>
      </trkpt>
      <trkpt lat="44.44817" lon="1.44353">
        <ele>112.443</ele>
        <time>2022-04-12T12:48:03Z</time>
      </trkpt>
      <trkpt lat="44.44821" lon="1.4435">
        <ele>113.407</ele>
        <time>2022-04-12T12:48:45Z</time>
      </trkpt>
      <trkpt lat="44.44812" lon="1.44349">
        <ele>113.408</ele>
        <time>2022-04-12T12:52:20Z</time>
      </trkpt>
      <trkpt lat="44.44807" lon="1.44336">
        <ele>112.49</ele>
        <time>2022-04-12T12:52:49Z</time>
      </trkpt>
      <trkpt lat="44.44812" lon="1.44275">
        <ele>122.44</ele>
        <time>2022-04-12T12:53:38Z</time>
      </trkpt>
      <trkpt lat="44.44839" lon="1.44253">
        <ele>122.488</ele>
        <time>2022-04-12T12:54:10Z</time>
      </trkpt>
      <trkpt lat="44.44847" lon="1.44228">
        <ele>118.486</ele>
        <time>2022-04-12T12:54:45Z</time>
      </trkpt>
      <trkpt lat="44.44876" lon="1.44222">
        <ele>119.48</ele>
        <time>2022-04-12T12:55:17Z</time>
      </trkpt>
      <trkpt lat="44.44929" lon="1.44183">
        <ele>121.495</ele>
        <time>2022-04-12T12:56:48Z</time>
      </trkpt>
      <trkpt lat="44.44945" lon="1.44186">
        <ele>121.412</ele>
        <time>2022-04-12T12:57:02Z</time>
      </trkpt>
      <trkpt lat="44.44948" lon="1.44174">
        <ele>124.437</ele>
        <time>2022-04-12T12:57:35Z</time>
      </trkpt>
      <trkpt lat="44.44955" lon="1.4418">
        <ele>124.444</ele>
        <time>2022-04-12T12:58:30Z</time>
      </trkpt>
      <trkpt lat="44.44995" lon="1.44158">
        <ele>124.405</ele>
        <time>2022-04-12T12:59:20Z</time>
      </trkpt>
      <trkpt lat="44.4498" lon="1.44123">
        <ele>121.415</ele>
        <time>2022-04-12T13:00:21Z</time>
      </trkpt>
      <trkpt lat="44.44979" lon="1.4408">
        <ele>126.908</ele>
        <time>2022-04-12T13:00:56Z</time>
      </trkpt>
      <trkpt lat="44.44989" lon="1.44147">
        <ele>134.413</ele>
        <time>2022-04-12T13:02:15Z</time>
      </trkpt>
      <trkpt lat="44.45067" lon="1.44124">
        <ele>132.413</ele>
        <time>2022-04-12T13:03:37Z</time>
      </trkpt>
      <trkpt lat="44.45097" lon="1.44123">
        <ele>136.461</ele>
        <time>2022-04-12T13:04:05Z</time>
      </trkpt>
      <trkpt lat="44.45203" lon="1.44073">
        <ele>139.479</ele>
        <time>2022-04-12T13:06:00Z</time>
      </trkpt>
      <trkpt lat="44.45205" lon="1.44079">
        <ele>142.923</ele>
        <time>2022-04-12T13:06:43Z</time>
      </trkpt>
      <trkpt lat="44.45217" lon="1.44056">
        <ele>145.418</ele>
        <time>2022-04-12T13:07:12Z</time>
      </trkpt>
      <trkpt lat="44.45231" lon="1.44052">
        <ele>143.495</ele>
        <time>2022-04-12T13:07:28Z</time>
      </trkpt>
      <trkpt lat="44.45239" lon="1.44058">
        <ele>142.93</ele>
        <time>2022-04-12T13:07:49Z</time>
      </trkpt>
      <trkpt lat="44.45274" lon="1.44022">
        <ele>138.938</ele>
        <time>2022-04-12T13:09:36Z</time>
      </trkpt>
      <trkpt lat="44.45284" lon="1.44033">
        <ele>136.47</ele>
        <time>2022-04-12T13:10:14Z</time>
      </trkpt>
      <trkpt lat="44.45273" lon="1.43982">
        <ele>138.417</ele>
        <time>2022-04-12T13:12:27Z</time>
      </trkpt>
      <trkpt lat="44.45317" lon="1.43946">
        <ele>142.908</ele>
        <time>2022-04-12T13:13:09Z</time>
      </trkpt>
      <trkpt lat="44.45399" lon="1.43903">
        <ele>138.452</ele>
        <time>2022-04-12T13:14:22Z</time>
      </trkpt>
      <trkpt lat="44.45413" lon="1.43888">
        <ele>139.442</ele>
        <time>2022-04-12T13:14:40Z</time>
      </trkpt>
      <trkpt lat="44.4548" lon="1.43867">
        <ele>143.42</ele>
        <time>2022-04-12T13:15:32Z</time>
      </trkpt>
      <trkpt lat="44.45477" lon="1.43862">
        <ele>143.428</ele>
        <time>2022-04-12T13:16:23Z</time>
      </trkpt>
      <trkpt lat="44.45491" lon="1.4387">
        <ele>144.462</ele>
        <time>2022-04-12T13:17:03Z</time>
      </trkpt>
      <trkpt lat="44.455" lon="1.43895">
        <ele>144.487</ele>
        <time>2022-04-12T13:17:41Z</time>
      </trkpt>
      <trkpt lat="44.45492" lon="1.43901">
        <ele>142.454</ele>
        <time>2022-04-12T13:18:24Z</time>
      </trkpt>
      <trkpt lat="44.45488" lon="1.43867">
        <ele>139.419</ele>
        <time>2022-04-12T13:20:06Z</time>
      </trkpt>
      <trkpt lat="44.455" lon="1.43849">
        <ele>139.469</ele>
        <time>2022-04-12T13:20:30Z</time>
      </trkpt>
      <trkpt lat="44.45459" lon="1.43723">
        <ele>143.904</ele>
        <time>2022-04-12T13:22:16Z</time>
      </trkpt>
      <trkpt lat="44.45453" lon="1.43634">
        <ele>134.424</ele>
        <time>2022-04-12T13:23:11Z</time>
      </trkpt>
      <trkpt lat="44.45472" lon="1.43717">
        <ele>130.408</ele>
        <time>2022-04-12T13:24:21Z</time>
      </trkpt>
      <trkpt lat="44.45468" lon="1.43729">
        <ele>131.485</ele>
        <time>2022-04-12T13:24:27Z</time>
      </trkpt>
      <trkpt lat="44.45425" lon="1.43766">
        <ele>137.455</ele>
        <time>2022-04-12T13:25:01Z</time>
      </trkpt>
      <trkpt lat="44.45356" lon="1.43846">
        <ele>140.433</ele>
        <time>2022-04-12T13:26:07Z</time>
      </trkpt>
      <trkpt lat="44.45343" lon="1.43877">
        <ele>139.411</ele>
        <time>2022-04-12T13:26:27Z</time>
      </trkpt>
      <trkpt lat="44.45282" lon="1.43964">
        <ele>136.475</ele>
        <time>2022-04-12T13:27:32Z</time>
      </trkpt>
      <trkpt lat="44.4514" lon="1.43998">
        <ele>133.43</ele>
        <time>2022-04-12T13:29:18Z</time>
      </trkpt>
      <trkpt lat="44.4513" lon="1.44014">
        <ele>133.497</ele>
        <time>2022-04-12T13:29:34Z</time>
      </trkpt>
      <trkpt lat="44.45111" lon="1.44025">
        <ele>131.442</ele>
        <time>2022-04-12T13:29:49Z</time>
      </trkpt>
      <trkpt lat="44.45086" lon="1.44019">
        <ele>131.451</ele>
        <time>2022-04-12T13:30:08Z</time>
      </trkpt>
      <trkpt lat="44.45054" lon="1.44025">
        <ele>129.401</ele>
        <time>2022-04-12T13:30:33Z</time>
      </trkpt>
      <trkpt lat="44.45004" lon="1.44011">
        <ele>129.411</ele>
        <time>2022-04-12T13:31:10Z</time>
      </trkpt>
      <trkpt lat="44.44974" lon="1.44017">
        <ele>126.408</ele>
        <time>2022-04-12T13:31:33Z</time>
      </trkpt>
      <trkpt lat="44.44945" lon="1.44013">
        <ele>125.494</ele>
        <time>2022-04-12T13:31:52Z</time>
      </trkpt>
      <trkpt lat="44.44815" lon="1.44017">
        <ele>115.464</ele>
        <time>2022-04-12T13:33:33Z</time>
      </trkpt>
      <trkpt lat="44.4474" lon="1.44039">
        <ele>118.482</ele>
        <time>2022-04-12T13:34:31Z</time>
      </trkpt>
      <trkpt lat="44.44728" lon="1.44031">
        <ele>119.48</ele>
        <time>2022-04-12T13:34:52Z</time>
      </trkpt>
      <trkpt lat="44.44697" lon="1.44059">
        <ele>121.444</ele>
        <time>2022-04-12T13:35:24Z</time>
      </trkpt>
      <trkpt lat="44.44681" lon="1.4406">
        <ele>119.499</ele>
        <time>2022-04-12T13:35:37Z</time>
      </trkpt>
      <trkpt lat="44.44612" lon="1.44103">
        <ele>116.436</ele>
        <time>2022-04-12T13:36:36Z</time>
      </trkpt>
      <trkpt lat="44.44625" lon="1.44086">
        <ele>114.461</ele>
        <time>2022-04-12T13:37:10Z</time>
      </trkpt>
      <trkpt lat="44.44623" lon="1.44019">
        <ele>113.949</ele>
        <time>2022-04-12T13:37:45Z</time>
      </trkpt>
      <trkpt lat="44.44595" lon="1.43871">
        <ele>113.402</ele>
        <time>2022-04-12T13:39:09Z</time>
      </trkpt>
      <trkpt lat="44.44591" lon="1.43811">
        <ele>115.422</ele>
        <time>2022-04-12T13:39:39Z</time>
      </trkpt>
      <trkpt lat="44.44571" lon="1.43761">
        <ele>108.908</ele>
        <time>2022-04-12T13:40:12Z</time>
      </trkpt>
      <trkpt lat="44.44558" lon="1.43535">
        <ele>115.483</ele>
        <time>2022-04-12T13:42:05Z</time>
      </trkpt>
      <trkpt lat="44.44546" lon="1.43505">
        <ele>114.433</ele>
        <time>2022-04-12T13:42:42Z</time>
      </trkpt>
      <trkpt lat="44.44542" lon="1.43395">
        <ele>108.481</ele>
        <time>2022-04-12T13:43:40Z</time>
      </trkpt>
      <trkpt lat="44.44534" lon="1.43387">
        <ele>107.449</ele>
        <time>2022-04-12T13:43:48Z</time>
      </trkpt>
      <trkpt lat="44.44547" lon="1.43362">
        <ele>102.923</ele>
        <time>2022-04-12T13:44:23Z</time>
      </trkpt>
      <trkpt lat="44.44493" lon="1.43084">
        <ele>110.448</ele>
        <time>2022-04-12T13:47:41Z</time>
      </trkpt>
      <trkpt lat="44.44499" lon="1.43057">
        <ele>112.425</ele>
        <time>2022-04-12T13:47:57Z</time>
      </trkpt>
      <trkpt lat="44.4457" lon="1.43019">
        <ele>113.47</ele>
        <time>2022-04-12T13:48:57Z</time>
      </trkpt>
      <trkpt lat="44.44579" lon="1.42951">
        <ele>110.469</ele>
        <time>2022-04-12T13:50:00Z</time>
      </trkpt>
    </trkseg>
  </trk>
</gpx>